Time;durP1;ratioP1;P1;durP2;ratioP2;P2;SDS_P1;SDS_P2;PMS_P1;PMS_P2;Temp;Humidity;BMP_temperature;BMP_pressure;BME280_temperature;BME280_humidity;BME280_pressure;Samples;Min_cycle;Max_cycle;Signal;HPM_P1;HPM_P2
2021/11/07 00:00:02;;;;;;;10.07;4.60;;;11.40;38.80;;;;;;5013361;28;20412;-79
2021/11/07 00:02:40;;;;;;;9.40;4.22;;;11.40;38.60;;;;;;5015388;28;20411;-79
2021/11/07 00:05:07;;;;;;;12.77;4.82;;;11.40;38.60;;;;;;5013063;28;20389;-78
2021/11/07 00:08:07;;;;;;;6.17;4.00;;;11.40;38.80;;;;;;5013088;28;20435;-78
2021/11/07 00:10:37;;;;;;;12.45;4.40;;;11.50;38.90;;;;;;5012600;28;20402;-78
2021/11/07 00:15:40;;;;;;;6.28;4.03;;;11.40;39.00;;;;;;5018986;28;20893;-76
2021/11/07 00:18:12;;;;;;;8.48;4.50;;;11.40;39.30;;;;;;5012157;28;20419;-78
2021/11/07 00:20:46;;;;;;;7.50;4.28;;;11.40;39.70;;;;;;5015176;28;20878;-77
2021/11/07 00:25:45;;;;;;;10.27;5.03;;;11.40;39.90;;;;;;5012969;28;20403;-78
2021/11/07 00:28:21;;;;;;;12.07;4.90;;;11.40;40.40;;;;;;5013709;28;20487;-76
2021/11/07 00:31:01;;;;;;;8.30;5.35;;;11.40;41.70;;;;;;5010945;28;20452;-77
2021/11/07 00:43:50;;;;;;;11.60;5.30;;;11.10;45.60;;;;;;5014803;28;20416;-78
2021/11/07 00:47:28;;;;;;;10.23;5.80;;;11.00;46.20;;;;;;5014508;28;20401;-78
2021/11/07 00:49:20;;;;;;;13.30;6.57;;;11.00;46.70;;;;;;5018515;28;20479;-78
2021/11/07 00:54:19;;;;;;;11.47;5.80;;;11.00;47.10;;;;;;4994027;28;20514;-76
2021/11/07 00:56:56;;;;;;;11.75;5.97;;;11.00;48.20;;;;;;5012714;28;20417;-77
2021/11/07 01:02:04;;;;;;;10.25;6.20;;;10.90;51.90;;;;;;5013774;28;20441;-77
2021/11/07 01:04:30;;;;;;;16.05;6.40;;;10.70;53.40;;;;;;5014245;28;20404;-77
2021/11/07 01:06:56;;;;;;;12.00;6.80;;;10.70;54.00;;;;;;5010995;28;20415;-78
2021/11/07 01:09:22;;;;;;;17.50;7.47;;;10.80;54.60;;;;;;5009904;28;20922;-77
2021/11/07 01:11:47;;;;;;;9.18;5.97;;;10.70;55.00;;;;;;5009994;28;20436;-77
2021/11/07 01:14:14;;;;;;;12.98;6.10;;;10.70;55.30;;;;;;5011270;28;20488;-77
2021/11/07 01:16:41;;;;;;;10.95;6.20;;;10.70;55.90;;;;;;5009710;28;20420;-77
2021/11/07 01:19:07;;;;;;;10.60;6.82;;;10.70;56.60;;;;;;5010946;28;20834;-77
2021/11/07 01:21:39;;;;;;;9.77;7.00;;;10.70;57.90;;;;;;5008384;28;20901;-77
2021/11/07 01:24:10;;;;;;;12.38;7.25;;;10.60;58.80;;;;;;5011248;28;20400;-77
2021/11/07 01:26:44;;;;;;;10.60;6.65;;;10.50;60.30;;;;;;5010358;28;20718;-77
2021/11/07 01:29:14;;;;;;;16.65;7.10;;;10.50;62.20;;;;;;5011487;28;20393;-77
2021/11/07 01:31:41;;;;;;;13.32;7.75;;;10.50;62.40;;;;;;5010889;28;20412;-77
2021/11/07 01:34:13;;;;;;;11.60;7.00;;;10.50;62.80;;;;;;5009856;28;20411;-77
2021/11/07 01:36:42;;;;;;;12.35;7.45;;;10.40;64.50;;;;;;5008780;28;20416;-77
2021/11/07 01:39:57;;;;;;;11.82;7.55;;;10.50;64.70;;;;;;5010334;28;20397;-77
2021/11/07 01:42:05;;;;;;;9.43;6.78;;;10.40;65.30;;;;;;5012227;28;20428;-78
2021/11/07 01:44:45;;;;;;;9.80;6.80;;;10.40;66.90;;;;;;5009251;28;20388;-77
2021/11/07 01:47:12;;;;;;;8.82;6.80;;;10.40;67.90;;;;;;5010929;28;20420;-79
2021/11/07 01:49:41;;;;;;;11.23;6.43;;;10.40;68.50;;;;;;5016171;28;20432;-78
2021/11/07 01:52:08;;;;;;;11.07;6.90;;;10.40;70.20;;;;;;5019118;28;20440;-80
2021/11/07 01:57:28;;;;;;;11.43;6.60;;;10.40;70.00;;;;;;5017608;28;20427;-78
2021/11/07 01:59:57;;;;;;;9.82;6.40;;;10.30;72.50;;;;;;5017988;28;20399;-78
2021/11/07 02:02:30;;;;;;;11.35;6.82;;;10.30;72.50;;;;;;5016857;28;20389;-77
2021/11/07 02:04:56;;;;;;;11.32;7.57;;;10.30;73.80;;;;;;5010098;28;20427;-77
2021/11/07 02:07:23;;;;;;;10.77;7.32;;;10.30;75.80;;;;;;5023753;28;20384;-77
2021/11/07 02:09:48;;;;;;;12.13;7.50;;;10.20;78.40;;;;;;5021763;28;20474;-77
2021/11/07 02:12:14;;;;;;;13.60;6.95;;;10.20;79.20;;;;;;5025960;28;20391;-77
2021/11/07 02:14:41;;;;;;;15.30;7.47;;;10.20;80.30;;;;;;5025955;28;20407;-78
2021/11/07 02:17:09;;;;;;;11.77;6.80;;;10.20;80.70;;;;;;5023579;28;20440;-78
2021/11/07 02:19:34;;;;;;;10.93;7.20;;;10.20;79.70;;;;;;5016066;28;20969;-78
2021/11/07 02:22:00;;;;;;;10.57;7.20;;;10.10;81.10;;;;;;5016705;28;20425;-78
2021/11/07 02:24:27;;;;;;;11.50;7.13;;;10.10;82.70;;;;;;5015777;28;20396;-78
2021/11/07 02:26:57;;;;;;;12.60;6.90;;;10.20;79.10;;;;;;5012291;28;20805;-78
2021/11/07 02:29:24;;;;;;;11.35;6.57;;;10.10;79.00;;;;;;5021357;28;20397;-77
2021/11/07 02:31:52;;;;;;;8.70;6.60;;;10.10;79.30;;;;;;5025310;28;20451;-77
2021/11/07 02:34:18;;;;;;;13.88;7.57;;;10.10;79.50;;;;;;5020423;28;20412;-78
2021/11/07 02:36:44;;;;;;;9.80;6.60;;;10.20;79.00;;;;;;5018274;28;20431;-76
2021/11/07 02:39:13;;;;;;;10.20;6.68;;;10.10;80.20;;;;;;5023108;28;20424;-78
2021/11/07 02:41:39;;;;;;;9.32;6.40;;;10.10;79.50;;;;;;5022653;28;20392;-77
2021/11/07 02:44:05;;;;;;;10.15;6.80;;;10.10;80.20;;;;;;5018212;28;20401;-78
2021/11/07 02:46:30;;;;;;;12.53;6.70;;;10.10;80.00;;;;;;5021773;28;20439;-78
2021/11/07 02:48:59;;;;;;;8.70;7.10;;;10.10;78.90;;;;;;5021222;28;20385;-79
2021/11/07 02:51:30;;;;;;;9.23;7.22;;;10.10;78.80;;;;;;5020594;28;20440;-77
2021/11/07 02:53:56;;;;;;;8.35;6.88;;;10.00;80.80;;;;;;5024062;28;20385;-76
2021/11/07 02:56:22;;;;;;;8.20;7.15;;;10.10;79.30;;;;;;5023356;28;20411;-75
2021/11/07 02:58:48;;;;;;;8.80;7.13;;;10.20;78.70;;;;;;5022287;28;20483;-77
2021/11/07 03:01:19;;;;;;;9.43;6.90;;;10.10;79.80;;;;;;5016242;28;20389;-77
2021/11/07 03:03:45;;;;;;;10.18;7.20;;;10.20;78.40;;;;;;5017126;28;20475;-77
2021/11/07 03:06:11;;;;;;;12.07;7.28;;;10.20;78.90;;;;;;5020421;28;20444;-77
2021/11/07 03:08:48;;;;;;;9.88;7.95;;;10.20;79.10;;;;;;5024054;28;20408;-77
2021/11/07 03:11:14;;;;;;;9.48;7.35;;;10.10;79.80;;;;;;5023406;28;20404;-77
2021/11/07 03:13:40;;;;;;;9.93;7.80;;;10.20;79.30;;;;;;5017150;28;20401;-77
2021/11/07 03:16:11;;;;;;;8.60;7.60;;;10.20;79.00;;;;;;5022709;28;20479;-78
2021/11/07 03:18:37;;;;;;;10.95;8.00;;;10.20;79.90;;;;;;4998981;28;20402;-78
2021/11/07 03:21:07;;;;;;;8.40;7.55;;;10.20;81.30;;;;;;5016004;28;20421;-77
2021/11/07 03:23:37;;;;;;;12.60;8.20;;;10.20;79.50;;;;;;5014636;28;20822;-77
2021/11/07 03:26:08;;;;;;;10.80;7.70;;;10.20;79.80;;;;;;5014697;28;20381;-77
2021/11/07 03:28:35;;;;;;;10.52;8.48;;;10.20;79.10;;;;;;5014403;28;20393;-77
2021/11/07 03:31:13;;;;;;;11.68;9.43;;;10.20;79.90;;;;;;5013790;28;20460;-77
2021/11/07 03:33:55;;;;;;;10.05;8.30;;;10.20;79.10;;;;;;5014631;28;20456;-78
2021/11/07 03:36:21;;;;;;;10.77;8.63;;;10.20;79.60;;;;;;5015137;28;20465;-78
2021/11/07 03:38:50;;;;;;;10.77;8.70;;;10.30;78.80;;;;;;5016272;28;20377;-78
2021/11/07 03:41:16;;;;;;;13.20;9.75;;;10.30;78.50;;;;;;5013567;28;20937;-77
2021/11/07 03:43:42;;;;;;;13.15;9.70;;;10.30;78.30;;;;;;5012971;28;20530;-77
2021/11/07 03:46:09;;;;;;;12.77;9.48;;;10.20;79.50;;;;;;5015876;28;20466;-77
2021/11/07 03:48:35;;;;;;;11.90;10.35;;;10.30;79.80;;;;;;5022138;28;20766;-77
2021/11/07 03:51:02;;;;;;;14.60;10.90;;;10.30;78.90;;;;;;5018071;28;20392;-78
2021/11/07 03:53:28;;;;;;;11.98;10.68;;;10.30;78.60;;;;;;5015241;28;20433;-77
2021/11/07 03:55:55;;;;;;;16.65;10.75;;;10.30;78.40;;;;;;5015793;28;20415;-77
2021/11/07 03:58:21;;;;;;;14.82;11.80;;;10.40;77.30;;;;;;5016712;28;20396;-77
2021/11/07 04:00:47;;;;;;;14.73;10.90;;;10.40;77.10;;;;;;5016009;28;20411;-77
2021/11/07 04:03:13;;;;;;;13.48;10.32;;;10.40;76.20;;;;;;5015327;28;20385;-77
2021/11/07 04:05:39;;;;;;;11.57;9.63;;;10.50;75.00;;;;;;5014891;28;20395;-77
2021/11/07 04:08:05;;;;;;;15.93;11.40;;;10.50;74.60;;;;;;5016292;28;20388;-77
2021/11/07 04:10:34;;;;;;;11.88;9.60;;;10.40;75.50;;;;;;5014983;28;20385;-77
2021/11/07 04:13:00;;;;;;;14.88;9.90;;;10.50;74.70;;;;;;5011120;28;20732;-78
2021/11/07 04:15:26;;;;;;;10.52;9.40;;;10.50;74.80;;;;;;5013501;28;20416;-77
2021/11/07 04:17:52;;;;;;;12.35;9.20;;;10.50;75.50;;;;;;5013224;28;20409;-78
2021/11/07 04:20:18;;;;;;;10.83;9.60;;;10.40;75.80;;;;;;5013418;28;20877;-78
2021/11/07 04:22:43;;;;;;;12.30;8.90;;;10.50;76.40;;;;;;5019878;28;20408;-78
2021/11/07 04:25:10;;;;;;;17.23;11.20;;;10.50;77.20;;;;;;5020534;28;20862;-78
2021/11/07 04:27:36;;;;;;;13.35;9.05;;;10.50;76.20;;;;;;5015740;28;20400;-78
2021/11/07 04:30:04;;;;;;;13.00;9.17;;;10.50;76.40;;;;;;5011633;28;20396;-78
2021/11/07 04:32:30;;;;;;;11.85;8.50;;;10.60;75.50;;;;;;5012461;28;20951;-78
2021/11/07 04:34:56;;;;;;;9.93;8.33;;;10.60;76.10;;;;;;5012911;28;20477;-78
2021/11/07 04:37:22;;;;;;;11.10;8.60;;;10.60;76.10;;;;;;5012701;28;20905;-79
2021/11/07 04:39:48;;;;;;;12.70;9.15;;;10.60;75.10;;;;;;5012647;28;20407;-78
2021/11/07 04:42:14;;;;;;;10.00;8.03;;;10.60;75.70;;;;;;5012512;28;20773;-78
2021/11/07 04:44:40;;;;;;;9.10;7.70;;;10.70;74.60;;;;;;5012814;28;20476;-78
2021/11/07 04:47:05;;;;;;;13.00;8.10;;;10.70;74.60;;;;;;5012944;28;20399;-78
2021/11/07 04:49:31;;;;;;;11.00;8.20;;;10.70;74.80;;;;;;5013158;28;20467;-78
2021/11/07 04:51:58;;;;;;;13.60;9.13;;;10.70;74.60;;;;;;5012695;28;20411;-78
2021/11/07 04:54:23;;;;;;;9.57;7.80;;;10.70;74.80;;;;;;5015097;28;20431;-79
2021/11/07 04:56:49;;;;;;;12.13;7.70;;;10.70;74.80;;;;;;5018134;28;20908;-78
2021/11/07 04:59:15;;;;;;;11.97;8.20;;;10.80;74.70;;;;;;5015646;28;20399;-77
2021/11/07 05:01:41;;;;;;;11.10;8.35;;;10.70;74.60;;;;;;5026539;28;20408;-78
2021/11/07 05:04:08;;;;;;;11.88;8.98;;;10.80;75.00;;;;;;5029551;28;20393;-77
2021/11/07 05:06:35;;;;;;;11.80;7.82;;;10.80;75.00;;;;;;5024688;28;20407;-77
2021/11/07 05:09:01;;;;;;;11.73;8.65;;;10.80;75.40;;;;;;5034856;28;20419;-77
2021/11/07 05:11:27;;;;;;;10.50;8.80;;;10.80;74.10;;;;;;5031785;28;20421;-78
2021/11/07 05:13:52;;;;;;;11.23;9.13;;;10.80;75.90;;;;;;5040348;28;20403;-77
2021/11/07 05:16:19;;;;;;;11.77;8.77;;;10.80;75.90;;;;;;5035969;28;20403;-77
2021/11/07 05:18:44;;;;;;;10.20;8.50;;;10.80;74.50;;;;;;5030920;28;20414;-77
2021/11/07 05:21:10;;;;;;;10.13;8.80;;;10.90;74.00;;;;;;5022064;28;20930;-77
2021/11/07 05:23:36;;;;;;;11.10;8.57;;;10.90;73.30;;;;;;5017600;28;20411;-77
2021/11/07 05:26:02;;;;;;;12.60;8.90;;;10.90;72.90;;;;;;5014969;28;20932;-77
2021/11/07 05:28:28;;;;;;;12.43;10.05;;;10.90;74.00;;;;;;5015433;28;20746;-78
2021/11/07 05:30:54;;;;;;;12.60;9.90;;;10.90;74.40;;;;;;5011088;28;20519;-78
2021/11/07 05:33:20;;;;;;;10.85;9.30;;;10.80;75.90;;;;;;5012291;28;20424;-77
2021/11/07 05:35:46;;;;;;;13.00;9.47;;;10.90;75.40;;;;;;5013647;28;20388;-78
2021/11/07 05:38:11;;;;;;;11.27;8.70;;;10.90;75.00;;;;;;5016476;28;20476;-78
2021/11/07 05:40:37;;;;;;;13.77;8.75;;;10.90;76.00;;;;;;5018916;28;20393;-77
2021/11/07 05:43:03;;;;;;;11.25;8.73;;;10.90;76.00;;;;;;5016212;28;20527;-78
2021/11/07 05:45:29;;;;;;;14.15;8.48;;;10.90;74.20;;;;;;5016032;28;20471;-78
2021/11/07 05:47:54;;;;;;;9.77;8.70;;;10.90;74.40;;;;;;5016031;28;20835;-77
2021/11/07 05:50:22;;;;;;;11.83;9.00;;;10.90;75.40;;;;;;5015692;28;20823;-77
2021/11/07 05:52:49;;;;;;;13.70;8.95;;;10.90;76.30;;;;;;5015925;28;20446;-77
2021/11/07 05:55:14;;;;;;;13.73;8.05;;;11.00;74.70;;;;;;5024451;28;20484;-77
2021/11/07 05:57:40;;;;;;;10.23;7.77;;;11.00;74.80;;;;;;5023316;28;20440;-77
2021/11/07 06:00:08;;;;;;;9.48;8.13;;;10.90;74.50;;;;;;5014547;28;20396;-77
2021/11/07 06:02:34;;;;;;;9.35;7.95;;;11.00;74.10;;;;;;5016755;28;20947;-78
2021/11/07 06:04:59;;;;;;;11.20;7.90;;;11.00;74.10;;;;;;5017935;28;20419;-78
2021/11/07 06:07:25;;;;;;;8.90;7.87;;;11.00;74.80;;;;;;5016580;28;20414;-78
2021/11/07 06:09:50;;;;;;;10.70;8.00;;;11.00;75.90;;;;;;5016920;28;20466;-78
2021/11/07 06:12:16;;;;;;;13.20;8.52;;;11.10;75.20;;;;;;5021799;28;20950;-78
2021/11/07 06:14:42;;;;;;;11.55;8.80;;;11.00;75.50;;;;;;5036184;28;20744;-78
2021/11/07 06:17:07;;;;;;;10.30;8.38;;;11.00;75.80;;;;;;5036332;28;20548;-78
2021/11/07 06:19:33;;;;;;;11.63;8.85;;;11.10;75.80;;;;;;5031047;28;20783;-78
2021/11/07 06:21:59;;;;;;;10.57;8.80;;;11.10;75.40;;;;;;5015394;28;20405;-80
2021/11/07 06:24:27;;;;;;;17.23;9.50;;;11.10;74.80;;;;;;5015556;28;20952;-78
2021/11/07 06:26:57;;;;;;;10.48;8.70;;;11.10;75.00;;;;;;5016291;28;20392;-78
2021/11/07 06:29:24;;;;;;;13.30;8.82;;;11.10;75.90;;;;;;5015122;28;20416;-78
2021/11/07 06:31:51;;;;;;;10.73;9.27;;;11.10;76.50;;;;;;5022845;28;20392;-78
2021/11/07 06:34:18;;;;;;;13.90;9.23;;;11.20;76.80;;;;;;5028025;28;20897;-77
2021/11/07 06:36:43;;;;;;;13.15;9.32;;;11.00;78.90;;;;;;5025099;28;20432;-79
2021/11/07 06:39:09;;;;;;;11.77;9.55;;;11.00;79.10;;;;;;5015601;28;20381;-77
2021/11/07 06:41:35;;;;;;;11.90;9.50;;;11.00;82.40;;;;;;5014988;28;20385;-78
2021/11/07 06:44:01;;;;;;;11.50;9.37;;;11.00;81.40;;;;;;5018288;28;20392;-78
2021/11/07 06:46:27;;;;;;;12.50;9.30;;;11.00;81.80;;;;;;5018404;28;20455;-78
2021/11/07 06:48:53;;;;;;;12.70;9.48;;;11.00;84.60;;;;;;5017226;28;20500;-78
2021/11/07 06:51:18;;;;;;;10.95;8.93;;;11.00;83.40;;;;;;5015171;28;20388;-78
2021/11/07 06:53:44;;;;;;;12.60;9.20;;;11.00;82.80;;;;;;5015248;28;20397;-78
2021/11/07 06:56:10;;;;;;;12.57;8.90;;;11.10;82.60;;;;;;5016541;28;20438;-79
2021/11/07 06:58:36;;;;;;;12.18;9.25;;;11.00;81.80;;;;;;5016478;28;20400;-79
2021/11/07 07:01:02;;;;;;;13.20;9.80;;;11.10;82.10;;;;;;5017604;28;20377;-78
2021/11/07 07:03:28;;;;;;;14.32;9.50;;;11.10;81.70;;;;;;5026963;28;20412;-78
2021/11/07 07:05:54;;;;;;;12.93;8.80;;;11.10;81.20;;;;;;5021293;28;20946;-78
2021/11/07 07:08:26;;;;;;;11.55;9.35;;;11.10;81.50;;;;;;5014575;28;20417;-79
2021/11/07 07:11:00;;;;;;;12.10;8.27;;;11.20;80.50;;;;;;5014301;28;20447;-78
2021/11/07 07:13:34;;;;;;;14.03;9.00;;;11.20;78.70;;;;;;5015765;28;20885;-78
2021/11/07 07:16:12;;;;;;;12.60;9.20;;;11.20;80.90;;;;;;5015959;28;20404;-76
2021/11/07 07:19:00;;;;;;;12.45;9.00;;;11.30;79.00;;;;;;5015956;28;20761;-77
2021/11/07 07:34:25;;;;;;;14.65;9.07;;;11.30;78.60;;;;;;5014807;28;20415;-75
2021/11/07 07:36:53;;;;;;;15.50;9.35;;;11.30;78.60;;;;;;5012182;28;20420;-76
2021/11/07 07:39:18;;;;;;;13.52;9.13;;;11.30;76.70;;;;;;5020618;28;20699;-78
2021/11/07 07:41:44;;;;;;;12.93;8.77;;;11.40;76.70;;;;;;5030030;28;20498;-77
2021/11/07 07:44:10;;;;;;;12.00;7.97;;;11.40;75.60;;;;;;5031438;28;20401;-78
2021/11/07 07:46:40;;;;;;;11.40;8.00;;;11.50;75.20;;;;;;5029040;28;20408;-77
2021/11/07 07:49:07;;;;;;;12.57;7.50;;;11.40;74.30;;;;;;5020612;28;20401;-77
2021/11/07 07:51:33;;;;;;;12.82;7.30;;;11.50;73.80;;;;;;5013391;28;20637;-77
2021/11/07 07:54:02;;;;;;;13.10;7.70;;;11.50;73.30;;;;;;5016076;28;20419;-76
2021/11/07 07:56:30;;;;;;;12.02;7.60;;;11.50;73.00;;;;;;5013048;28;20457;-77
2021/11/07 07:58:56;;;;;;;10.82;7.72;;;11.60;73.00;;;;;;5002980;28;20438;-77
2021/11/07 08:01:23;;;;;;;9.32;7.00;;;11.70;70.10;;;;;;5011040;28;20397;-77
2021/11/07 08:03:49;;;;;;;11.60;7.20;;;11.70;69.70;;;;;;5013045;28;20431;-78
2021/11/07 08:06:15;;;;;;;9.48;6.90;;;11.70;69.30;;;;;;5012825;28;20468;-78
2021/11/07 08:08:40;;;;;;;9.65;6.90;;;11.80;67.90;;;;;;5015683;28;20428;-77
2021/11/07 08:11:06;;;;;;;12.23;6.95;;;11.80;67.40;;;;;;5014382;28;20401;-77
2021/11/07 08:13:32;;;;;;;13.07;7.30;;;11.90;67.10;;;;;;5021690;28;20420;-76
2021/11/07 08:15:58;;;;;;;10.32;6.78;;;11.90;66.60;;;;;;5019387;28;20404;-78
2021/11/07 08:18:24;;;;;;;10.00;6.13;;;12.00;65.10;;;;;;5017563;28;20400;-77
2021/11/07 08:20:50;;;;;;;10.00;6.45;;;12.00;63.70;;;;;;5012835;28;20490;-77
2021/11/07 08:23:17;;;;;;;15.40;7.20;;;11.90;64.10;;;;;;5018008;28;20405;-80
2021/11/07 08:25:43;;;;;;;9.82;6.40;;;11.90;63.90;;;;;;5018278;28;20425;-76
2021/11/07 08:28:09;;;;;;;15.20;6.63;;;12.00;63.20;;;;;;5019973;28;20393;-77
2021/11/07 08:30:42;;;;;;;11.18;6.55;;;12.00;62.40;;;;;;5017599;28;20715;-77
2021/11/07 08:33:09;;;;;;;17.15;7.00;;;12.10;63.00;;;;;;5012375;28;20436;-76
2021/11/07 08:35:39;;;;;;;16.35;6.53;;;12.20;60.70;;;;;;5013405;28;20397;-79
2021/11/07 08:38:12;;;;;;;17.10;7.07;;;12.20;59.10;;;;;;5015070;28;20510;-77
2021/11/07 08:40:42;;;;;;;15.02;6.90;;;12.20;58.50;;;;;;5015433;28;20395;-76
2021/11/07 08:54:27;;;;;;;17.65;6.80;;;12.20;59.90;;;;;;5011565;28;20385;-72
2021/11/07 09:02:35;;;;;;;21.05;6.25;;;12.20;53.00;;;;;;5007784;28;20392;-77
2021/11/07 09:05:11;;;;;;;28.35;6.30;;;12.20;52.50;;;;;;5010877;28;20395;-75
2021/11/07 09:08:00;;;;;;;19.20;6.10;;;12.20;52.60;;;;;;5011550;28;20404;-78
2021/11/07 09:10:29;;;;;;;16.92;5.80;;;12.30;52.20;;;;;;5011000;28;20769;-76
2021/11/07 09:12:56;;;;;;;16.35;5.80;;;12.40;50.80;;;;;;5019566;28;20493;-79
2021/11/07 09:15:24;;;;;;;19.80;5.72;;;12.50;50.70;;;;;;5016223;28;20817;-76
2021/11/07 09:17:49;;;;;;;17.42;6.25;;;12.50;49.00;;;;;;5015933;28;20920;-77
2021/11/07 09:20:21;;;;;;;16.02;5.80;;;12.50;48.70;;;;;;5009700;28;20495;-77
2021/11/07 09:23:00;;;;;;;15.32;5.68;;;12.40;48.70;;;;;;5009766;28;20870;-77
2021/11/07 09:25:31;;;;;;;20.55;5.30;;;12.50;49.10;;;;;;5008116;28;20425;-76
2021/11/07 09:28:05;;;;;;;20.93;6.50;;;12.50;47.20;;;;;;5008205;28;20410;-78
2021/11/07 09:36:02;;;;;;;25.77;5.97;;;12.60;46.50;;;;;;5010730;28;20470;-76
2021/11/07 09:38:32;;;;;;;23.13;5.60;;;12.80;45.10;;;;;;5002033;28;20472;-77
2021/11/07 09:41:19;;;;;;;24.80;5.80;;;12.80;43.90;;;;;;5008936;28;20412;-78
2021/11/07 09:43:58;;;;;;;19.95;5.47;;;12.90;43.50;;;;;;5006754;28;20393;-78
2021/11/07 09:46:48;;;;;;;15.48;5.57;;;13.00;42.70;;;;;;5014482;28;20471;-78
2021/11/07 09:51:45;;;;;;;15.65;5.30;;;12.90;42.40;;;;;;5014378;28;20475;-77
2021/11/07 09:54:12;;;;;;;22.27;5.88;;;12.80;42.60;;;;;;5013594;28;20846;-80
2021/11/07 09:56:44;;;;;;;23.23;6.17;;;12.90;42.10;;;;;;5012179;28;20437;-76
2021/11/07 09:59:10;;;;;;;23.17;5.83;;;12.90;42.60;;;;;;5002571;28;20922;-74
2021/11/07 10:01:36;;;;;;;23.33;6.00;;;12.90;41.00;;;;;;5010486;28;20392;-76
2021/11/07 10:04:03;;;;;;;19.95;5.70;;;12.90;41.10;;;;;;5010007;28;20393;-74
2021/11/07 10:09:11;;;;;;;20.30;5.40;;;13.10;39.80;;;;;;5006835;28;20492;-75
2021/11/07 10:12:07;;;;;;;23.65;6.05;;;13.10;38.40;;;;;;5013135;28;20447;-73
2021/11/07 10:14:56;;;;;;;17.60;4.78;;;13.10;38.60;;;;;;5004958;28;20406;-75
2021/11/07 10:17:39;;;;;;;27.92;5.28;;;13.10;37.50;;;;;;5005525;28;20409;-73
2021/11/07 10:22:52;;;;;;;15.38;4.38;;;13.10;36.20;;;;;;5019917;28;20431;-77
2021/11/07 10:25:29;;;;;;;22.20;4.60;;;13.20;35.10;;;;;;5020908;28;20397;-79
2021/11/07 10:27:57;;;;;;;17.33;4.20;;;13.20;35.40;;;;;;5020147;28;20483;-77
2021/11/07 10:30:28;;;;;;;20.13;4.27;;;13.10;34.40;;;;;;5017637;28;20496;-79
2021/11/07 10:33:04;;;;;;;21.27;4.47;;;13.00;34.40;;;;;;5009090;28;20420;-79
2021/11/07 10:43:41;;;;;;;24.27;5.28;;;12.40;36.00;;;;;;5010352;28;20404;-75
2021/11/07 10:46:38;;;;;;;22.42;4.90;;;12.60;36.00;;;;;;5010415;28;20392;-75
2021/11/07 10:52:11;;;;;;;17.25;4.40;;;13.30;33.40;;;;;;5012194;28;20403;-74
2021/11/07 10:54:41;;;;;;;24.60;4.32;;;13.60;32.60;;;;;;5012905;28;20409;-74
2021/11/07 10:57:14;;;;;;;22.20;5.55;;;13.80;30.60;;;;;;5011523;28;20829;-74
2021/11/07 10:59:40;;;;;;;29.40;4.60;;;13.90;30.50;;;;;;5008793;28;20439;-75
2021/11/07 11:02:34;;;;;;;19.38;4.75;;;13.90;30.10;;;;;;5005521;28;20897;-76
2021/11/07 11:05:01;;;;;;;18.92;5.25;;;13.90;30.40;;;;;;5012546;28;20415;-76
2021/11/07 11:07:27;;;;;;;23.45;5.13;;;13.80;30.20;;;;;;5018856;28;20393;-77
2021/11/07 11:10:17;;;;;;;30.38;4.90;;;13.90;30.80;;;;;;5018328;28;20400;-76
2021/11/07 11:13:05;;;;;;;16.95;5.35;;;13.90;30.00;;;;;;5013382;28;20476;-77
2021/11/07 11:15:38;;;;;;;21.27;5.15;;;13.70;30.70;;;;;;5007564;28;20450;-76
2021/11/07 11:18:19;;;;;;;20.65;4.65;;;13.70;30.80;;;;;;5013405;28;20413;-77
2021/11/07 11:24:21;;;;;;;16.92;3.83;;;13.40;30.20;;;;;;4992867;28;20406;-76
2021/11/07 11:29:22;;;;;;;17.70;3.92;;;13.10;29.30;;;;;;5014133;28;20478;-77
2021/11/07 11:32:08;;;;;;;16.98;3.85;;;13.00;29.60;;;;;;5014967;28;20473;-77
2021/11/07 11:34:41;;;;;;;13.03;3.90;;;13.30;30.00;;;;;;5016236;28;20395;-76
2021/11/07 11:40:21;;;;;;;15.52;4.15;;;13.40;28.80;;;;;;4991558;28;20446;-77
2021/11/07 11:45:16;;;;;;;19.37;3.77;;;13.20;29.20;;;;;;4993316;28;20492;-76
2021/11/07 11:48:05;;;;;;;26.60;4.83;;;13.30;29.20;;;;;;5008504;28;20460;-76
2021/11/07 11:50:48;;;;;;;18.13;4.35;;;13.30;29.50;;;;;;5008823;28;20389;-76
2021/11/07 11:55:52;;;;;;;20.17;4.32;;;13.50;28.80;;;;;;5013275;28;20392;-76
2021/11/07 11:58:59;;;;;;;23.38;4.55;;;13.30;29.10;;;;;;5014443;28;20416;-76
2021/11/07 12:01:33;;;;;;;26.90;4.50;;;13.20;29.40;;;;;;4967924;28;20880;-76
2021/11/07 12:06:52;;;;;;;29.25;4.68;;;13.20;29.20;;;;;;5013923;28;20431;-77
2021/11/07 12:09:40;;;;;;;18.05;4.28;;;13.40;29.50;;;;;;5019739;28;20409;-77
2021/11/07 12:15:45;;;;;;;24.83;3.90;;;13.80;27.80;;;;;;5026215;28;20458;-77
2021/11/07 12:17:47;;;;;;;17.05;3.75;;;13.80;27.10;;;;;;5020852;28;20413;-76
2021/11/07 12:20:29;;;;;;;19.40;4.30;;;13.60;27.70;;;;;;5014827;28;20452;-76
2021/11/07 12:23:23;;;;;;;16.67;3.97;;;13.50;28.00;;;;;;5013215;28;20448;-77
2021/11/07 12:25:51;;;;;;;21.60;4.70;;;13.40;28.40;;;;;;5014932;28;20871;-77
2021/11/07 12:28:21;;;;;;;15.90;3.80;;;13.40;28.60;;;;;;5016892;28;20475;-77
2021/11/07 12:31:02;;;;;;;19.15;4.30;;;13.60;28.40;;;;;;5024854;28;20865;-76
2021/11/07 12:33:44;;;;;;;19.08;4.35;;;13.60;27.90;;;;;;5020332;28;20400;-77
2021/11/07 12:36:24;;;;;;;21.73;4.20;;;13.70;27.50;;;;;;5023285;28;20411;-77
2021/11/07 12:41:34;;;;;;;23.10;4.50;;;13.50;27.10;;;;;;5013469;28;20876;-77
2021/11/07 12:44:03;;;;;;;23.53;4.43;;;13.40;27.60;;;;;;5013979;28;20389;-76
2021/11/07 12:46:46;;;;;;;20.38;4.20;;;13.50;27.60;;;;;;5011215;28;20439;-78
2021/11/07 12:49:15;;;;;;;21.30;4.40;;;13.60;27.70;;;;;;5009069;28;20545;-75
2021/11/07 12:51:48;;;;;;;23.35;4.53;;;13.70;27.30;;;;;;5011143;28;20403;-76
2021/11/07 12:54:24;;;;;;;20.30;4.27;;;13.90;26.80;;;;;;5011561;28;20456;-76
2021/11/07 12:57:00;;;;;;;16.10;3.60;;;13.90;27.30;;;;;;5012597;28;20408;-76
2021/11/07 12:59:30;;;;;;;18.70;4.22;;;13.90;27.20;;;;;;5013869;28;20389;-76
2021/11/07 13:02:05;;;;;;;25.77;5.10;;;13.70;27.50;;;;;;5012405;28;20462;-77
2021/11/07 13:04:38;;;;;;;25.13;5.47;;;13.40;28.10;;;;;;5013219;28;20383;-77
2021/11/07 13:07:05;;;;;;;21.88;5.60;;;13.10;29.10;;;;;;5011744;28;20530;-77
2021/11/07 13:09:36;;;;;;;20.65;4.90;;;13.00;29.50;;;;;;5013231;28;20459;-77
2021/11/07 13:12:17;;;;;;;30.95;7.07;;;12.90;30.20;;;;;;5012904;28;20453;-79
2021/11/07 13:15:15;;;;;;;34.60;11.93;;;12.90;30.40;;;;;;5018535;28;20389;-76
2021/11/07 13:21:07;;;;;;;21.65;4.40;;;12.70;31.20;;;;;;5012585;28;20376;-77
2021/11/07 13:26:17;;;;;;;87.10;36.40;;;12.40;32.40;;;;;;5010707;28;20408;-76
2021/11/07 13:28:58;;;;;;;29.20;5.10;;;12.40;33.40;;;;;;5011051;28;20435;-76
2021/11/07 13:31:27;;;;;;;25.58;5.10;;;12.50;31.20;;;;;;5013542;28;20396;-76
2021/11/07 13:34:13;;;;;;;23.17;6.00;;;12.70;31.70;;;;;;5006237;28;20753;-76
2021/11/07 13:36:43;;;;;;;33.20;5.85;;;12.90;30.30;;;;;;5008411;28;20404;-76
2021/11/07 13:39:11;;;;;;;22.55;4.50;;;13.10;28.90;;;;;;5014321;28;20380;-76
2021/11/07 13:41:38;;;;;;;17.10;4.07;;;13.20;27.10;;;;;;5018071;28;20439;-76
2021/11/07 13:44:12;;;;;;;24.80;5.40;;;13.20;26.90;;;;;;5022792;28;20465;-77
2021/11/07 13:46:56;;;;;;;13.45;4.32;;;13.40;26.90;;;;;;5023649;28;20457;-77
2021/11/07 13:49:22;;;;;;;15.52;4.35;;;13.30;26.40;;;;;;5025068;28;20411;-76
2021/11/07 13:52:00;;;;;;;18.02;3.65;;;13.50;25.60;;;;;;5013997;28;20385;-78
2021/11/07 13:54:27;;;;;;;19.52;4.10;;;13.50;25.70;;;;;;5011627;28;20480;-76
2021/11/07 13:56:54;;;;;;;14.50;3.72;;;13.40;26.70;;;;;;5007697;28;20416;-76
2021/11/07 13:59:40;;;;;;;21.47;4.27;;;13.40;27.40;;;;;;5011531;28;20903;-76
2021/11/07 14:02:21;;;;;;;19.80;4.40;;;13.40;27.20;;;;;;5012313;28;20439;-76
2021/11/07 14:04:52;;;;;;;17.33;3.70;;;13.40;27.60;;;;;;5011926;28;20426;-77
2021/11/07 14:07:27;;;;;;;17.00;4.50;;;13.40;27.60;;;;;;5013541;28;20912;-77
2021/11/07 14:09:58;;;;;;;19.50;4.20;;;13.40;27.80;;;;;;5013870;28;20397;-77
2021/11/07 14:12:36;;;;;;;18.17;3.80;;;13.30;27.40;;;;;;5013700;28;20392;-76
2021/11/07 14:15:33;;;;;;;16.85;4.20;;;13.30;27.00;;;;;;5014713;28;20761;-77
2021/11/07 14:18:29;;;;;;;17.30;4.20;;;13.60;26.30;;;;;;5014439;28;20455;-77
2021/11/07 14:21:02;;;;;;;20.25;4.20;;;13.70;25.60;;;;;;5014531;28;20403;-76
2021/11/07 14:23:38;;;;;;;20.27;4.13;;;13.70;25.60;;;;;;5012731;28;20455;-77
2021/11/07 14:26:11;;;;;;;16.70;3.70;;;13.70;26.10;;;;;;5008744;28;20386;-78
2021/11/07 14:31:39;;;;;;;12.70;3.25;;;13.70;26.20;;;;;;5029291;28;20440;-76
2021/11/07 14:34:12;;;;;;;15.35;3.47;;;13.70;26.20;;;;;;5020069;28;20395;-76
2021/11/07 14:39:36;;;;;;;11.88;3.17;;;13.60;26.90;;;;;;5017608;28;20487;-76
2021/11/07 14:42:24;;;;;;;18.90;3.80;;;13.50;27.50;;;;;;5018590;28;20388;-76
2021/11/07 14:47:59;;;;;;;17.70;3.92;;;13.40;26.70;;;;;;5015478;28;20400;-76
2021/11/07 14:56:16;;;;;;;23.05;4.40;;;13.30;26.20;;;;;;5013839;28;20427;-76